Time,TemperatureF,DewpointF,PressureIn,WindDirection,WindDirectionDegrees,WindSpeedMPH,WindSpeedGustMPH,Humidity,HourlyPrecipIn,Conditions,Clouds,dailyrainin,SoftwareType,DateUTC
2013-01-12 00:02:00,-5.0,-15.0,30.11,ENE,76,0.0,-999.0,60,-99.99,,,-99.99,,2013-01-12 07:02:00,
2013-01-12 00:12:00,-5.0,-16.0,30.11,East,84,0.0,-999.0,59,-99.99,,,-99.99,,2013-01-12 07:12:00,
2013-01-12 00:22:00,-5.0,-16.0,30.11,East,84,0.0,-999.0,59,-99.99,,,-99.99,,2013-01-12 07:22:00,
2013-01-12 00:32:00,-5.0,-15.0,30.12,East,84,0.0,-999.0,61,-99.99,,,-99.99,,2013-01-12 07:32:00,
2013-01-12 00:42:00,-5.0,-15.0,30.12,East,84,0.0,-999.0,61,-99.99,,,-99.99,,2013-01-12 07:42:00,
2013-01-12 00:52:00,-5.0,-15.0,30.12,East,84,0.0,-999.0,62,-99.99,,,-99.99,,2013-01-12 07:52:00,
2013-01-12 01:02:00,-5.0,-15.0,30.12,ENE,78,0.0,-999.0,61,-99.99,,,-99.99,,2013-01-12 08:02:00,
2013-01-12 01:11:00,-5.0,-15.0,30.12,ENE,78,0.0,-999.0,61,-99.99,,,-99.99,,2013-01-12 08:11:00,
2013-01-12 01:22:00,-6.0,-16.0,30.12,East,79,0.0,-999.0,62,-99.99,,,-99.99,,2013-01-12 08:22:00,
2013-01-12 01:32:00,-6.0,-16.0,30.12,East,79,0.0,-999.0,61,-99.99,,,-99.99,,2013-01-12 08:32:00,
2013-01-12 01:42:00,-6.0,-16.0,30.12,East,79,0.0,-999.0,61,-99.99,,,-99.99,,2013-01-12 08:42:00,
2013-01-12 01:52:00,-6.0,-16.0,30.13,East,79,0.0,-999.0,62,-99.99,,,-99.99,,2013-01-12 08:52:00,
2013-01-12 02:02:00,-6.0,-16.0,30.15,East,79,0.0,-999.0,62,-99.99,,,-99.99,,2013-01-12 09:02:00,
2013-01-12 02:12:00,-6.0,-16.0,30.15,East,79,0.0,-999.0,62,-99.99,,,-99.99,,2013-01-12 09:12:00,
2013-01-12 02:22:00,-7.0,-16.0,30.15,East,79,0.0,-999.0,63,-99.99,,,-99.99,,2013-01-12 09:22:00,
2013-01-12 02:32:00,-7.0,-16.0,30.16,East,80,0.0,-999.0,63,-99.99,,,-99.99,,2013-01-12 09:32:00,
2013-01-12 02:42:00,-7.0,-16.0,30.16,East,80,0.0,-999.0,63,-99.99,,,-99.99,,2013-01-12 09:42:00,
2013-01-12 02:52:00,-7.0,-16.0,30.16,East,80,0.0,-999.0,63,-99.99,,,-99.99,,2013-01-12 09:52:00,
2013-01-12 03:02:00,-7.0,-17.0,30.15,East,90,0.0,-999.0,62,-99.99,,,-99.99,,2013-01-12 10:02:00,
2013-01-12 03:12:00,-7.0,-17.0,30.15,East,90,0.0,-999.0,62,-99.99,,,-99.99,,2013-01-12 10:12:00,
2013-01-12 03:22:00,-7.0,-17.0,30.14,ESE,111,0.0,-999.0,62,-99.99,,,-99.99,,2013-01-12 10:22:00,
2013-01-12 03:32:00,-7.0,-17.0,30.14,ESE,111,0.0,-999.0,62,-99.99,,,-99.99,,2013-01-12 10:32:00,
2013-01-12 03:42:00,-7.0,-17.0,30.14,ESE,111,0.0,-999.0,62,-99.99,,,-99.99,,2013-01-12 10:42:00,
2013-01-12 03:52:00,-7.0,-17.0,30.14,ESE,111,0.0,-999.0,62,-99.99,,,-99.99,,2013-01-12 10:52:00,
2013-01-12 07:33:00,-15.0,-22.0,30.22,NW,322,0.0,-999.0,68,-99.99,,,-99.99,,2013-01-12 14:33:00,
2013-01-12 07:43:00,-15.0,-22.0,30.22,NW,322,0.0,-999.0,68,-99.99,,,-99.99,,2013-01-12 14:43:00,
2013-01-12 07:53:00,-15.0,-22.0,30.26,NW,322,0.0,-999.0,70,-99.99,,,-99.99,,2013-01-12 14:53:00,
2013-01-12 08:03:00,-15.0,-22.0,30.29,NW,323,0.0,-999.0,69,-99.99,,,-99.99,,2013-01-12 15:03:00,
2013-01-12 08:12:00,-15.0,-22.0,30.29,NW,323,0.0,-999.0,69,-99.99,,,-99.99,,2013-01-12 15:12:00,
2013-01-12 08:22:00,-16.0,-23.0,30.31,NW,322,0.0,-999.0,70,-99.99,,,-99.99,,2013-01-12 15:22:00,
2013-01-12 08:33:00,-14.0,-20.0,30.33,NE,50,0.0,-999.0,72,-99.99,,,-99.99,,2013-01-12 15:33:00,
2013-01-12 08:43:00,-14.0,-20.0,30.33,NE,50,0.0,-999.0,72,-99.99,,,-99.99,,2013-01-12 15:43:00,
2013-01-12 08:52:00,-12.0,-19.0,30.34,NE,50,0.0,-999.0,70,-99.99,,,-99.99,,2013-01-12 15:52:00,
2013-01-12 09:03:00,-10.0,-17.0,30.36,NE,50,0.0,-999.0,69,-99.99,,,-99.99,,2013-01-12 16:03:00,
2013-01-12 09:12:00,-10.0,-17.0,30.36,NE,50,0.0,-999.0,69,-99.99,,,-99.99,,2013-01-12 16:12:00,
2013-01-12 09:23:00,-9.0,-17.0,30.37,NE,50,0.0,-999.0,66,-99.99,,,-99.99,,2013-01-12 16:23:00,
2013-01-12 09:33:00,-6.0,-16.0,30.39,NE,42,0.0,-999.0,61,-99.99,,,-99.99,,2013-01-12 16:33:00,
2013-01-12 09:42:00,-6.0,-16.0,30.39,NE,42,0.0,-999.0,61,-99.99,,,-99.99,,2013-01-12 16:42:00,
2013-01-12 09:52:00,-5.0,-16.0,30.40,NE,42,0.0,-999.0,57,-99.99,,,-99.99,,2013-01-12 16:52:00,
2013-01-12 10:02:00,-4.0,-16.0,30.40,NE,42,0.0,-999.0,54,-99.99,,,-99.99,,2013-01-12 17:02:00,
2013-01-12 10:12:00,-4.0,-16.0,30.40,NE,42,0.0,-999.0,54,-99.99,,,-99.99,,2013-01-12 17:12:00,
2013-01-12 10:22:00,-3.0,-16.0,30.41,NE,42,0.0,-999.0,53,-99.99,,,-99.99,,2013-01-12 17:22:00,
2013-01-12 10:33:00,-2.0,-16.0,30.41,West,274,0.0,-999.0,50,-99.99,,,-99.99,,2013-01-12 17:33:00,
2013-01-12 10:42:00,-2.0,-16.0,30.41,West,274,0.0,-999.0,50,-99.99,,,-99.99,,2013-01-12 17:42:00,
2013-01-12 10:53:00,0.0,-16.0,30.41,East,90,1.0,-999.0,45,-99.99,,,-99.99,,2013-01-12 17:53:00,
2013-01-12 11:03:00,0.0,-18.0,30.40,SSW,207,1.0,-999.0,42,-99.99,,,-99.99,,2013-01-12 18:03:00,
2013-01-12 11:12:00,0.0,-18.0,30.40,SSW,207,1.0,-999.0,42,-99.99,,,-99.99,,2013-01-12 18:12:00,
2013-01-12 11:22:00,1.0,-16.0,30.41,South,185,2.0,-999.0,43,-99.99,,,-99.99,,2013-01-12 18:22:00,
2013-01-12 11:33:00,1.0,-16.0,30.40,South,191,2.0,-999.0,43,-99.99,,,-99.99,,2013-01-12 18:33:00,
2013-01-12 11:42:00,1.0,-16.0,30.40,South,191,2.0,-999.0,43,-99.99,,,-99.99,,2013-01-12 18:42:00,
2013-01-12 11:52:00,1.0,-17.0,30.40,South,184,1.0,-999.0,42,-99.99,,,-99.99,,2013-01-12 18:52:00,
2013-01-12 12:03:00,1.0,-17.0,30.39,SW,219,1.0,-999.0,42,-99.99,,,-99.99,,2013-01-12 19:03:00,
2013-01-12 12:12:00,1.0,-17.0,30.39,SW,219,1.0,-999.0,42,-99.99,,,-99.99,,2013-01-12 19:12:00,
2013-01-12 12:23:00,2.0,-15.0,30.38,SE,142,1.0,-999.0,43,-99.99,,,-99.99,,2013-01-12 19:23:00,
2013-01-12 12:33:00,4.0,-14.0,30.38,SW,215,2.0,-999.0,42,-99.99,,,-99.99,,2013-01-12 19:33:00,
2013-01-12 12:43:00,4.0,-14.0,30.38,SW,215,2.0,-999.0,42,-99.99,,,-99.99,,2013-01-12 19:43:00,
2013-01-12 12:52:00,5.0,-16.0,30.37,ENE,77,2.0,-999.0,37,-99.99,,,-99.99,,2013-01-12 19:52:00,
2013-01-12 13:03:00,4.0,-16.0,30.37,ENE,60,2.0,-999.0,37,-99.99,,,-99.99,,2013-01-12 20:03:00,
2013-01-12 13:12:00,3.0,-17.0,30.36,ESE,113,1.0,-999.0,37,-99.99,,,-99.99,,2013-01-12 20:12:00,
2013-01-12 13:22:00,3.0,-17.0,30.36,ESE,113,1.0,-999.0,37,-99.99,,,-99.99,,2013-01-12 20:22:00,
2013-01-12 13:33:00,4.0,-17.0,30.35,ENE,64,2.0,-999.0,35,-99.99,,,-99.99,,2013-01-12 20:33:00,
2013-01-12 13:42:00,4.0,-17.0,30.35,ENE,64,2.0,-999.0,35,-99.99,,,-99.99,,2013-01-12 20:42:00,
2013-01-12 13:53:00,4.0,-19.0,30.35,South,169,2.0,-999.0,33,-99.99,,,-99.99,,2013-01-12 20:53:00,
2013-01-12 14:03:00,4.0,-17.0,30.35,South,180,2.0,-999.0,35,-99.99,,,-99.99,,2013-01-12 21:03:00,
2013-01-12 14:12:00,3.0,-18.0,30.36,NE,52,2.0,-999.0,36,-99.99,,,-99.99,,2013-01-12 21:12:00,
2013-01-12 14:22:00,3.0,-18.0,30.36,NE,52,2.0,-999.0,36,-99.99,,,-99.99,,2013-01-12 21:22:00,
2013-01-12 14:33:00,2.0,-17.0,30.36,SE,126,1.0,-999.0,39,-99.99,,,-99.99,,2013-01-12 21:33:00,
2013-01-12 14:43:00,2.0,-17.0,30.36,SE,126,1.0,-999.0,39,-99.99,,,-99.99,,2013-01-12 21:43:00,
2013-01-12 14:52:00,1.0,-18.0,30.37,ENE,59,1.0,-999.0,40,-99.99,,,-99.99,,2013-01-12 21:52:00,
2013-01-12 15:03:00,1.0,-17.0,30.38,East,83,1.0,-999.0,41,-99.99,,,-99.99,,2013-01-12 22:03:00,
2013-01-12 15:12:00,1.0,-17.0,30.38,East,83,1.0,-999.0,41,-99.99,,,-99.99,,2013-01-12 22:12:00,
2013-01-12 15:22:00,2.0,-19.0,30.38,ENE,75,2.0,-999.0,36,-99.99,,,-99.99,,2013-01-12 22:22:00,
2013-01-12 15:33:00,1.0,-18.0,30.39,East,83,1.0,-999.0,39,-99.99,,,-99.99,,2013-01-12 22:33:00,
2013-01-12 15:43:00,1.0,-18.0,30.39,East,83,1.0,-999.0,39,-99.99,,,-99.99,,2013-01-12 22:43:00,
2013-01-12 15:52:00,0.0,-18.0,30.39,East,83,0.0,-999.0,42,-99.99,,,-99.99,,2013-01-12 22:52:00,
2013-01-12 16:03:00,0.0,-17.0,30.40,SE,145,0.0,-999.0,43,-99.99,,,-99.99,,2013-01-12 23:03:00,
2013-01-12 16:12:00,0.0,-16.0,30.40,SE,145,0.0,-999.0,45,-99.99,,,-99.99,,2013-01-12 23:12:00,
2013-01-12 16:22:00,0.0,-16.0,30.40,SE,145,0.0,-999.0,45,-99.99,,,-99.99,,2013-01-12 23:22:00,
2013-01-12 16:33:00,-1.0,-18.0,30.40,ENE,76,0.0,-999.0,43,-99.99,,,-99.99,,2013-01-12 23:33:00,
2013-01-12 16:43:00,-1.0,-18.0,30.40,ENE,76,0.0,-999.0,43,-99.99,,,-99.99,,2013-01-12 23:43:00,
2013-01-12 16:53:00,-1.0,-18.0,30.40,ENE,76,0.0,-999.0,43,-99.99,,,-99.99,,2013-01-12 23:53:00,
2013-01-12 17:03:00,-2.0,-18.0,30.42,ENE,76,0.0,-999.0,45,-99.99,,,-99.99,,2013-01-13 00:03:00,
2013-01-12 17:12:00,-2.0,-18.0,30.42,ENE,76,0.0,-999.0,45,-99.99,,,-99.99,,2013-01-13 00:12:00,
2013-01-12 17:22:00,-3.0,-19.0,30.41,ENE,76,0.0,-999.0,46,-99.99,,,-99.99,,2013-01-13 00:22:00,
2013-01-12 17:33:00,-4.0,-18.0,30.42,ENE,76,0.0,-999.0,49,-99.99,,,-99.99,,2013-01-13 00:33:00,
2013-01-12 17:43:00,-4.0,-18.0,30.42,ENE,76,0.0,-999.0,49,-99.99,,,-99.99,,2013-01-13 00:43:00,
2013-01-12 17:52:00,-5.0,-19.0,30.42,ENE,76,0.0,-999.0,50,-99.99,,,-99.99,,2013-01-13 00:52:00,
2013-01-12 18:02:00,-5.0,-19.0,30.42,ENE,76,0.0,-999.0,50,-99.99,,,-99.99,,2013-01-13 01:02:00,
2013-01-12 18:12:00,-5.0,-19.0,30.42,ENE,76,0.0,-999.0,50,-99.99,,,-99.99,,2013-01-13 01:12:00,
2013-01-12 18:22:00,-6.0,-19.0,30.43,ENE,76,0.0,-999.0,53,-99.99,,,-99.99,,2013-01-13 01:22:00,
2013-01-12 18:33:00,-7.0,-19.0,30.42,ENE,76,0.0,-999.0,54,-99.99,,,-99.99,,2013-01-13 01:33:00,
2013-01-12 18:43:00,-7.0,-19.0,30.42,ENE,76,0.0,-999.0,54,-99.99,,,-99.99,,2013-01-13 01:43:00,
2013-01-12 18:52:00,-8.0,-20.0,30.43,ENE,76,0.0,-999.0,55,-99.99,,,-99.99,,2013-01-13 01:52:00,
2013-01-12 19:02:00,-9.0,-20.0,30.45,ENE,76,0.0,-999.0,57,-99.99,,,-99.99,,2013-01-13 02:02:00,
2013-01-12 19:12:00,-9.0,-20.0,30.45,ENE,76,0.0,-999.0,57,-99.99,,,-99.99,,2013-01-13 02:12:00,
2013-01-12 19:22:00,-10.0,-20.0,30.45,ENE,76,0.0,-999.0,60,-99.99,,,-99.99,,2013-01-13 02:22:00,
2013-01-12 19:32:00,-11.0,-21.0,30.45,ENE,76,0.0,-999.0,60,-99.99,,,-99.99,,2013-01-13 02:32:00,
2013-01-12 19:42:00,-11.0,-21.0,30.45,ENE,76,0.0,-999.0,60,-99.99,,,-99.99,,2013-01-13 02:42:00,
2013-01-12 19:52:00,-11.0,-20.0,30.46,ENE,76,0.0,-999.0,63,-99.99,,,-99.99,,2013-01-13 02:52:00,
2013-01-12 20:02:00,-10.0,-19.0,30.45,ENE,76,0.0,-999.0,62,-99.99,,,-99.99,,2013-01-13 03:02:00,
2013-01-12 20:12:00,-10.0,-19.0,30.45,ENE,76,0.0,-999.0,62,-99.99,,,-99.99,,2013-01-13 03:12:00,
2013-01-12 20:22:00,-10.0,-19.0,30.45,ENE,76,0.0,-999.0,62,-99.99,,,-99.99,,2013-01-13 03:22:00,
2013-01-12 20:33:00,-10.0,-19.0,30.46,ENE,76,0.0,-999.0,63,-99.99,,,-99.99,,2013-01-13 03:33:00,
2013-01-12 20:43:00,-10.0,-19.0,30.46,ENE,76,0.0,-999.0,63,-99.99,,,-99.99,,2013-01-13 03:43:00,
2013-01-12 20:52:00,-9.0,-18.0,30.46,ENE,76,0.0,-999.0,62,-99.99,,,-99.99,,2013-01-13 03:52:00,
2013-01-12 21:02:00,-9.0,-19.0,30.46,ENE,76,0.0,-999.0,61,-99.99,,,-99.99,,2013-01-13 04:02:00,
2013-01-12 21:12:00,-9.0,-19.0,30.46,ENE,76,0.0,-999.0,61,-99.99,,,-99.99,,2013-01-13 04:12:00,
2013-01-12 21:22:00,-9.0,-19.0,30.46,ENE,76,0.0,-999.0,61,-99.99,,,-99.99,,2013-01-13 04:22:00,
2013-01-12 21:33:00,-10.0,-19.0,30.45,ENE,76,0.0,-999.0,64,-99.99,,,-99.99,,2013-01-13 04:33:00,
2013-01-12 21:43:00,-10.0,-19.0,30.45,ENE,76,0.0,-999.0,64,-99.99,,,-99.99,,2013-01-13 04:43:00,
2013-01-12 21:53:00,-11.0,-20.0,30.45,ENE,76,0.0,-999.0,63,-99.99,,,-99.99,,2013-01-13 04:53:00,
2013-01-12 22:03:00,-11.0,-20.0,30.46,ENE,76,0.0,-999.0,63,-99.99,,,-99.99,,2013-01-13 05:03:00,
2013-01-12 22:12:00,-11.0,-20.0,30.46,ENE,76,0.0,-999.0,63,-99.99,,,-99.99,,2013-01-13 05:12:00,
2013-01-12 22:22:00,-11.0,-20.0,30.46,ENE,76,0.0,-999.0,64,-99.99,,,-99.99,,2013-01-13 05:22:00,
2013-01-12 22:32:00,-11.0,-20.0,30.46,ENE,76,0.0,-999.0,64,-99.99,,,-99.99,,2013-01-13 05:32:00,
2013-01-12 22:42:00,-11.0,-20.0,30.46,ENE,76,0.0,-999.0,64,-99.99,,,-99.99,,2013-01-13 05:42:00,
2013-01-12 22:52:00,-11.0,-20.0,30.46,ENE,76,0.0,-999.0,62,-99.99,,,-99.99,,2013-01-13 05:52:00,
2013-01-12 23:03:00,-12.0,-21.0,30.47,ENE,76,0.0,-999.0,64,-99.99,,,-99.99,,2013-01-13 06:03:00,
2013-01-12 23:12:00,-12.0,-21.0,30.47,ENE,76,0.0,-999.0,64,-99.99,,,-99.99,,2013-01-13 06:12:00,
2013-01-12 23:22:00,-13.0,-22.0,30.47,ENE,76,0.0,-999.0,63,-99.99,,,-99.99,,2013-01-13 06:22:00,
2013-01-12 23:32:00,-14.0,-22.0,30.47,ENE,76,0.0,-999.0,65,-99.99,,,-99.99,,2013-01-13 06:32:00,
2013-01-12 23:42:00,-14.0,-22.0,30.47,ENE,76,0.0,-999.0,65,-99.99,,,-99.99,,2013-01-13 06:42:00,
2013-01-12 23:52:00,-14.0,-21.0,30.48,WSW,238,0.0,-999.0,68,-99.99,,,-99.99,,2013-01-13 06:52:00,